Time;durP1;ratioP1;P1;durP2;ratioP2;P2;SDS_P1;SDS_P2;PMS_P1;PMS_P2;Temp;Humidity;BMP_temperature;BMP_pressure;BME280_temperature;BME280_humidity;BME280_pressure;Samples;Min_cycle;Max_cycle;Signal;HPM_P1;HPM_P2
2021/12/31 00:02:17;;;;;;;77.65;24.67;;;7.30;99.90;;;;;;5019780;28;20121;-78
2021/12/31 00:04:43;;;;;;;61.30;21.48;;;7.30;99.90;;;;;;5019622;28;20045;-78
2021/12/31 00:07:09;;;;;;;51.38;13.73;;;7.30;99.90;;;;;;5019627;28;20040;-77
2021/12/31 00:09:37;;;;;;;90.38;17.13;;;7.30;99.90;;;;;;5018149;28;20129;-77
2021/12/31 00:12:04;;;;;;;52.95;13.95;;;7.20;99.90;;;;;;5019643;28;20022;-78
2021/12/31 00:14:30;;;;;;;39.72;13.00;;;7.20;99.90;;;;;;5018228;28;20022;-78
2021/12/31 00:16:56;;;;;;;29.77;12.60;;;7.20;99.90;;;;;;5019657;28;20026;-78
2021/12/31 00:19:22;;;;;;;36.03;11.65;;;7.20;99.90;;;;;;5017925;28;20116;-78
2021/12/31 00:21:51;;;;;;;35.70;13.07;;;7.10;99.90;;;;;;5050887;28;20026;-78
2021/12/31 00:24:16;;;;;;;48.80;13.25;;;7.10;99.90;;;;;;5018445;28;20426;-78
2021/12/31 00:26:42;;;;;;;87.00;13.40;;;7.10;99.90;;;;;;5018172;28;20064;-78
2021/12/31 00:29:08;;;;;;;62.72;12.43;;;7.10;99.90;;;;;;5019413;28;20057;-78
2021/12/31 00:31:34;;;;;;;66.35;13.38;;;7.10;99.90;;;;;;5018176;28;20036;-78
2021/12/31 00:33:59;;;;;;;45.85;10.73;;;7.00;99.90;;;;;;5019262;28;20104;-78
2021/12/31 00:36:42;;;;;;;35.72;11.48;;;7.00;99.90;;;;;;5017367;28;20038;-78
2021/12/31 00:39:08;;;;;;;86.78;12.25;;;7.00;99.90;;;;;;5017782;28;20033;-78
2021/12/31 00:41:34;;;;;;;131.93;14.43;;;7.00;99.90;;;;;;5017486;28;20033;-78
2021/12/31 00:44:00;;;;;;;119.32;13.80;;;6.90;99.90;;;;;;5017647;28;20071;-78
2021/12/31 00:46:26;;;;;;;162.40;13.65;;;6.90;99.90;;;;;;5018800;28;20058;-78
2021/12/31 00:48:51;;;;;;;115.85;12.70;;;6.90;99.90;;;;;;5018948;28;20076;-78
2021/12/31 00:51:17;;;;;;;237.80;17.00;;;6.90;99.90;;;;;;5018552;28;20053;-78
2021/12/31 00:53:43;;;;;;;77.18;9.73;;;6.70;99.90;;;;;;5018876;28;20025;-78
2021/12/31 00:56:09;;;;;;;108.05;11.07;;;6.70;99.90;;;;;;5017323;28;20033;-78
2021/12/31 00:58:34;;;;;;;155.65;12.05;;;6.70;99.90;;;;;;5017338;28;20490;-78
2021/12/31 01:01:00;;;;;;;175.02;14.57;;;6.60;99.90;;;;;;5018583;28;20038;-78
2021/12/31 01:03:26;;;;;;;83.78;11.68;;;6.70;99.90;;;;;;5018627;28;20029;-78
2021/12/31 01:05:51;;;;;;;76.18;11.68;;;6.70;99.90;;;;;;5018284;28;20050;-78
2021/12/31 01:08:17;;;;;;;99.95;11.18;;;6.70;99.90;;;;;;5017034;28;20418;-78
2021/12/31 01:10:43;;;;;;;139.70;11.98;;;6.70;99.90;;;;;;5017078;28;20029;-78
2021/12/31 01:13:14;;;;;;;200.10;15.43;;;6.70;99.90;;;;;;5018525;28;20422;-78
2021/12/31 01:15:43;;;;;;;74.68;9.48;;;6.70;99.90;;;;;;5018317;28;20026;-78
2021/12/31 01:20:35;;;;;;;154.50;13.77;;;6.70;99.90;;;;;;5018203;28;20029;-79
2021/12/31 01:23:01;;;;;;;72.07;11.43;;;6.70;99.90;;;;;;5018315;28;20470;-78
2021/12/31 01:25:27;;;;;;;52.28;10.07;;;6.60;99.90;;;;;;5016792;28;20084;-78
2021/12/31 01:27:53;;;;;;;49.25;9.82;;;6.60;99.90;;;;;;5018216;28;20022;-78
2021/12/31 01:30:19;;;;;;;40.83;8.98;;;6.60;99.90;;;;;;5018198;28;20095;-78
2021/12/31 01:32:46;;;;;;;81.60;10.15;;;6.60;99.90;;;;;;5018319;28;20391;-78
2021/12/31 01:35:12;;;;;;;34.30;8.23;;;6.60;99.90;;;;;;5016832;28;20026;-78
2021/12/31 01:37:38;;;;;;;29.55;8.70;;;6.50;99.90;;;;;;5016409;28;20037;-78
2021/12/31 01:40:05;;;;;;;29.27;7.70;;;6.50;99.90;;;;;;5016656;28;20036;-78
2021/12/31 01:42:35;;;;;;;42.95;8.63;;;6.50;99.90;;;;;;5017967;28;20014;-78
2021/12/31 01:45:11;;;;;;;;;;;6.50;99.90;;;;;;5017250;28;20081;-78
2021/12/31 01:50:13;;;;;;;7.78;6.43;;;6.30;99.90;;;;;;5017880;28;20406;-78
2021/12/31 01:52:41;;;;;;;10.23;7.30;;;6.20;99.90;;;;;;5016431;28;20034;-78
2021/12/31 01:55:12;;;;;;;12.57;7.35;;;6.20;99.90;;;;;;5017814;28;20444;-78
2021/12/31 01:57:42;;;;;;;7.22;6.40;;;6.20;99.90;;;;;;5015662;28;20426;-78
2021/12/31 02:00:09;;;;;;;9.15;6.85;;;6.00;99.90;;;;;;5017806;28;20030;-78
2021/12/31 02:02:36;;;;;;;7.82;6.93;;;6.00;99.90;;;;;;5017492;28;20017;-77
2021/12/31 02:05:03;;;;;;;7.82;7.00;;;5.90;99.90;;;;;;5016193;28;20029;-77
2021/12/31 02:07:30;;;;;;;7.15;6.00;;;5.80;99.90;;;;;;5017310;28;20036;-78
2021/12/31 02:09:56;;;;;;;6.80;6.10;;;5.70;99.90;;;;;;5017675;28;20056;-77
2021/12/31 02:12:22;;;;;;;10.65;6.90;;;5.70;99.90;;;;;;5017337;28;20029;-77
2021/12/31 02:14:51;;;;;;;12.20;7.45;;;5.70;99.90;;;;;;5017734;28;20057;-78
2021/12/31 02:17:18;;;;;;;10.68;7.75;;;5.70;99.90;;;;;;5017326;28;20451;-77
2021/12/31 02:20:02;;;;;;;16.05;8.68;;;5.60;99.90;;;;;;5017238;28;20018;-77
2021/12/31 02:22:28;;;;;;;33.33;10.35;;;5.60;99.90;;;;;;5016047;28;20022;-77
2021/12/31 02:24:57;;;;;;;9.57;7.65;;;5.60;99.90;;;;;;5016217;28;20041;-77
2021/12/31 02:27:25;;;;;;;8.57;7.72;;;5.60;99.90;;;;;;5015954;28;20029;-77
2021/12/31 02:29:52;;;;;;;11.73;7.57;;;5.50;99.90;;;;;;5016010;28;20157;-78
2021/12/31 02:32:17;;;;;;;21.10;7.95;;;5.50;99.90;;;;;;5016069;28;20033;-77
2021/12/31 02:34:44;;;;;;;7.20;6.50;;;5.50;99.90;;;;;;5015628;28;20494;-78
2021/12/31 02:37:10;;;;;;;7.63;6.57;;;5.50;99.90;;;;;;5002883;28;20498;-77
2021/12/31 02:39:38;;;;;;;7.53;6.72;;;5.40;99.90;;;;;;5017263;28;20441;-78
2021/12/31 02:42:06;;;;;;;8.48;6.60;;;5.30;99.90;;;;;;5016101;28;20022;-77
2021/12/31 02:44:31;;;;;;;8.32;6.70;;;5.30;99.90;;;;;;5015716;28;20050;-78
2021/12/31 02:47:02;;;;;;;7.88;6.95;;;5.30;99.90;;;;;;5017431;28;20129;-77
2021/12/31 02:49:29;;;;;;;9.05;7.35;;;5.20;99.90;;;;;;5017130;28;20029;-78
2021/12/31 02:51:59;;;;;;;7.70;6.90;;;5.20;99.90;;;;;;5016034;28;20053;-77
2021/12/31 02:54:27;;;;;;;8.23;7.43;;;5.20;99.90;;;;;;5016987;28;20030;-77
2021/12/31 02:56:53;;;;;;;10.88;7.47;;;5.10;99.90;;;;;;5017115;28;20022;-77
2021/12/31 02:59:19;;;;;;;8.25;7.45;;;5.10;99.90;;;;;;5016975;28;20029;-78
2021/12/31 03:01:44;;;;;;;8.73;7.10;;;5.00;99.90;;;;;;5017200;28;20045;-77
2021/12/31 03:04:11;;;;;;;8.05;7.25;;;5.00;99.90;;;;;;5016926;28;20029;-78
2021/12/31 03:06:37;;;;;;;10.13;7.50;;;5.00;99.90;;;;;;5016927;28;20025;-77
2021/12/31 03:09:04;;;;;;;12.38;8.70;;;4.90;99.90;;;;;;5017459;28;20402;-77
2021/12/31 03:11:30;;;;;;;9.02;7.90;;;4.90;99.90;;;;;;5020711;28;20061;-77
2021/12/31 03:13:58;;;;;;;8.95;7.47;;;4.90;99.90;;;;;;5020605;28;20032;-77
2021/12/31 03:16:24;;;;;;;9.45;8.18;;;4.90;99.90;;;;;;5020763;28;20033;-77
2021/12/31 03:18:50;;;;;;;8.95;7.95;;;4.90;99.90;;;;;;5020332;28;20038;-75
2021/12/31 03:21:22;;;;;;;9.20;8.25;;;4.90;99.90;;;;;;5020403;28;20486;-77
2021/12/31 03:23:54;;;;;;;8.80;8.00;;;4.90;99.90;;;;;;5020479;28;20034;-78
2021/12/31 03:26:21;;;;;;;9.55;7.93;;;4.90;99.90;;;;;;5019079;28;20099;-77
2021/12/31 03:28:47;;;;;;;8.00;7.05;;;4.90;99.90;;;;;;5020402;28;20026;-77
2021/12/31 03:31:12;;;;;;;9.48;7.13;;;4.80;99.90;;;;;;5020411;28;20089;-77
2021/12/31 03:33:38;;;;;;;9.40;8.30;;;4.80;99.90;;;;;;5018970;28;20505;-77
2021/12/31 03:36:04;;;;;;;13.38;8.68;;;4.80;99.90;;;;;;5018909;28;20041;-78
2021/12/31 03:38:30;;;;;;;10.32;8.02;;;4.80;99.90;;;;;;5020008;28;20037;-77
2021/12/31 03:40:56;;;;;;;7.75;6.95;;;4.80;99.90;;;;;;5020379;28;20466;-77
2021/12/31 03:43:21;;;;;;;9.43;7.82;;;4.80;99.90;;;;;;5019930;28;20032;-77
2021/12/31 03:45:50;;;;;;;8.73;7.82;;;4.80;99.90;;;;;;5018884;28;20026;-77
2021/12/31 03:48:17;;;;;;;10.25;8.40;;;4.80;99.90;;;;;;5018636;28;20034;-77
2021/12/31 03:50:43;;;;;;;9.95;7.45;;;4.80;99.90;;;;;;5019892;28;20489;-77
2021/12/31 03:53:08;;;;;;;7.93;7.15;;;4.80;99.90;;;;;;5018706;28;20072;-77
2021/12/31 03:55:34;;;;;;;9.30;8.02;;;4.70;99.90;;;;;;5018608;28;20022;-77
2021/12/31 03:58:00;;;;;;;9.75;8.32;;;4.70;99.90;;;;;;5018199;28;20080;-77
2021/12/31 04:00:28;;;;;;;9.18;8.10;;;4.70;99.90;;;;;;5018635;28;20395;-77
2021/12/31 04:02:56;;;;;;;9.27;8.38;;;4.70;99.90;;;;;;5019689;28;20030;-77
2021/12/31 04:05:24;;;;;;;8.07;7.28;;;4.70;99.90;;;;;;5019622;28;20018;-77
2021/12/31 04:07:50;;;;;;;7.65;6.95;;;4.70;99.90;;;;;;5018041;28;20053;-77
2021/12/31 04:10:17;;;;;;;10.85;8.05;;;4.70;99.90;;;;;;5019814;28;20058;-78
2021/12/31 04:12:43;;;;;;;10.82;7.70;;;4.70;99.90;;;;;;5019349;28;20034;-77
2021/12/31 04:15:09;;;;;;;8.82;7.60;;;4.60;99.90;;;;;;5018446;28;20037;-77
2021/12/31 04:17:35;;;;;;;8.50;7.65;;;4.60;99.90;;;;;;5019402;28;20062;-78
2021/12/31 04:20:01;;;;;;;8.73;7.80;;;4.60;99.90;;;;;;5017246;28;20041;-78
2021/12/31 04:22:29;;;;;;;10.20;7.43;;;4.60;99.90;;;;;;5019276;28;20030;-78
2021/12/31 04:24:55;;;;;;;7.82;6.97;;;4.60;99.90;;;;;;5018102;28;20075;-78
2021/12/31 04:27:22;;;;;;;13.27;8.18;;;4.50;99.90;;;;;;5019199;28;20021;-78
2021/12/31 04:29:52;;;;;;;10.30;8.70;;;4.50;99.90;;;;;;5017988;28;20022;-78
2021/12/31 04:32:20;;;;;;;10.50;7.45;;;4.50;99.90;;;;;;5017799;28;20032;-78
2021/12/31 04:34:46;;;;;;;9.98;8.98;;;4.50;99.90;;;;;;5018897;28;20487;-78
2021/12/31 04:37:12;;;;;;;11.48;8.73;;;4.50;99.90;;;;;;5001556;28;20048;-78
2021/12/31 04:39:38;;;;;;;11.98;9.88;;;4.50;99.90;;;;;;5019247;28;20045;-78
2021/12/31 04:42:04;;;;;;;11.85;10.20;;;4.60;99.90;;;;;;5018974;28;20110;-78
2021/12/31 04:44:29;;;;;;;13.45;8.85;;;4.60;99.90;;;;;;5018849;28;20014;-78
2021/12/31 04:46:55;;;;;;;12.93;9.75;;;4.60;99.90;;;;;;5019093;28;20097;-78
2021/12/31 04:49:21;;;;;;;12.13;9.98;;;4.60;99.90;;;;;;5018901;28;20084;-78
2021/12/31 04:51:46;;;;;;;12.13;9.95;;;4.80;99.90;;;;;;5017491;28;20037;-78
2021/12/31 04:54:15;;;;;;;11.60;9.73;;;4.90;99.90;;;;;;5018768;28;20053;-78
2021/12/31 04:56:44;;;;;;;13.40;11.07;;;5.00;99.90;;;;;;5017370;28;20030;-77
2021/12/31 04:59:11;;;;;;;23.52;11.15;;;5.10;99.90;;;;;;5018620;28;20029;-78
2021/12/31 05:01:36;;;;;;;16.17;11.55;;;5.10;99.90;;;;;;5018789;28;20033;-78
2021/12/31 05:04:03;;;;;;;20.30;13.52;;;5.30;99.90;;;;;;5017410;28;20018;-77
2021/12/31 05:06:28;;;;;;;22.40;15.00;;;5.40;99.90;;;;;;5018420;28;20034;-78
2021/12/31 05:08:54;;;;;;;18.48;13.80;;;5.50;99.90;;;;;;5017307;28;20057;-78
2021/12/31 05:11:20;;;;;;;24.15;15.23;;;5.60;99.90;;;;;;5017196;28;20536;-78
2021/12/31 05:13:46;;;;;;;23.20;14.57;;;5.80;99.90;;;;;;5017097;28;20128;-78
2021/12/31 05:16:12;;;;;;;26.55;13.73;;;5.80;99.90;;;;;;5018478;28;21149;-77
2021/12/31 05:18:38;;;;;;;20.17;14.90;;;5.70;99.90;;;;;;5016794;28;20148;-78
2021/12/31 05:21:04;;;;;;;23.40;13.52;;;5.80;99.90;;;;;;5050079;28;20022;-78
2021/12/31 05:23:29;;;;;;;22.83;14.00;;;5.70;99.90;;;;;;5018364;28;20022;-78
2021/12/31 05:25:55;;;;;;;24.65;14.02;;;5.70;99.90;;;;;;5017261;28;20030;-78
2021/12/31 05:28:21;;;;;;;36.58;15.00;;;5.60;99.90;;;;;;5018022;28;20034;-77
2021/12/31 05:30:46;;;;;;;26.95;12.45;;;5.50;99.90;;;;;;5016915;28;20030;-77
2021/12/31 05:33:12;;;;;;;26.85;13.43;;;5.40;99.90;;;;;;5015953;28;20033;-78
2021/12/31 05:35:38;;;;;;;22.73;12.57;;;5.30;99.90;;;;;;5016851;28;20033;-78
2021/12/31 05:38:03;;;;;;;16.60;11.13;;;5.30;99.90;;;;;;5005613;28;20474;-78
2021/12/31 05:40:29;;;;;;;15.65;13.57;;;5.20;99.90;;;;;;5035341;28;20054;-78
2021/12/31 05:42:55;;;;;;;16.98;12.45;;;5.20;99.90;;;;;;5011657;28;20096;-78
2021/12/31 05:45:21;;;;;;;15.85;12.88;;;5.20;99.90;;;;;;5016587;28;20026;-78
2021/12/31 05:47:49;;;;;;;17.45;11.82;;;5.10;99.90;;;;;;5016498;28;20080;-77
2021/12/31 05:50:32;;;;;;;18.48;11.23;;;5.10;99.90;;;;;;5016233;28;20062;-78
2021/12/31 05:52:58;;;;;;;18.85;11.05;;;5.00;99.90;;;;;;5017657;28;20505;-76
2021/12/31 05:55:25;;;;;;;15.80;11.07;;;4.90;99.90;;;;;;5017807;28;20034;-75
2021/12/31 05:57:51;;;;;;;11.98;10.70;;;4.90;99.90;;;;;;5016181;28;20041;-78
2021/12/31 06:00:18;;;;;;;22.08;11.60;;;4.80;99.90;;;;;;5016348;28;20030;-77
2021/12/31 06:02:44;;;;;;;14.27;11.38;;;4.80;99.90;;;;;;5017465;28;20105;-78
2021/12/31 06:05:10;;;;;;;17.63;11.38;;;4.80;99.90;;;;;;5017365;28;20026;-78
2021/12/31 06:07:36;;;;;;;14.73;10.55;;;4.70;99.90;;;;;;5017367;28;20029;-78
2021/12/31 06:10:02;;;;;;;13.70;10.90;;;4.60;99.90;;;;;;5016215;28;20042;-78
2021/12/31 06:12:28;;;;;;;18.65;12.63;;;4.60;99.90;;;;;;5017315;28;20050;-77
2021/12/31 06:14:58;;;;;;;15.63;11.60;;;4.60;99.90;;;;;;5017452;28;20018;-78
2021/12/31 06:17:26;;;;;;;14.93;11.98;;;4.60;99.90;;;;;;5015847;28;20037;-77
2021/12/31 06:19:53;;;;;;;19.88;12.88;;;4.50;99.90;;;;;;5016316;28;20105;-77
2021/12/31 06:22:19;;;;;;;19.33;11.15;;;4.60;99.90;;;;;;5017393;28;20109;-77
2021/12/31 06:24:45;;;;;;;13.15;11.10;;;4.50;99.90;;;;;;5017548;28;20022;-78
2021/12/31 06:27:10;;;;;;;16.88;12.85;;;4.50;99.90;;;;;;5017250;28;20018;-78
2021/12/31 06:29:36;;;;;;;13.70;12.27;;;4.50;99.90;;;;;;5017344;28;20026;-78
2021/12/31 06:32:02;;;;;;;15.95;12.07;;;4.50;99.90;;;;;;5015912;28;20528;-77
2021/12/31 06:34:28;;;;;;;16.50;12.85;;;4.50;99.90;;;;;;5017072;28;20034;-77
2021/12/31 06:36:54;;;;;;;15.52;13.40;;;4.50;99.90;;;;;;5017178;28;20494;-77
2021/12/31 06:39:19;;;;;;;18.85;14.10;;;4.60;99.90;;;;;;5017299;28;20069;-77
2021/12/31 06:41:45;;;;;;;18.33;14.07;;;4.60;99.90;;;;;;5015750;28;20058;-77
2021/12/31 06:44:11;;;;;;;13.90;12.13;;;4.60;99.90;;;;;;5018468;28;20037;-78
2021/12/31 06:46:37;;;;;;;16.25;11.60;;;4.60;99.90;;;;;;5019817;28;20025;-77
2021/12/31 06:49:02;;;;;;;18.13;12.00;;;4.60;99.90;;;;;;5019980;28;20467;-77
2021/12/31 06:51:28;;;;;;;17.13;12.30;;;4.60;99.90;;;;;;5020736;28;20030;-78
2021/12/31 06:53:54;;;;;;;16.05;11.45;;;4.60;99.90;;;;;;5019863;28;20052;-77
2021/12/31 06:56:20;;;;;;;14.40;11.40;;;4.60;99.90;;;;;;5019553;28;20029;-77
2021/12/31 06:58:45;;;;;;;14.07;12.23;;;4.60;99.90;;;;;;5020936;28;20080;-77
2021/12/31 07:01:11;;;;;;;14.63;12.40;;;4.60;99.90;;;;;;5020802;28;20029;-77
2021/12/31 07:03:37;;;;;;;14.10;12.15;;;4.70;99.90;;;;;;5019622;28;20026;-77
2021/12/31 07:06:03;;;;;;;14.93;12.10;;;4.70;99.90;;;;;;5019181;28;20022;-77
2021/12/31 07:08:29;;;;;;;17.77;13.52;;;4.70;99.90;;;;;;5020629;28;20061;-77
2021/12/31 07:10:54;;;;;;;14.48;11.80;;;4.70;99.90;;;;;;5020614;28;20033;-77
2021/12/31 07:13:20;;;;;;;14.45;11.82;;;4.80;99.90;;;;;;5020721;28;20482;-77
2021/12/31 07:15:49;;;;;;;18.75;12.57;;;5.00;99.90;;;;;;5019325;28;20080;-77
2021/12/31 07:18:19;;;;;;;15.18;10.80;;;5.00;99.90;;;;;;5020545;28;20053;-77
2021/12/31 07:20:45;;;;;;;12.60;11.10;;;5.20;99.90;;;;;;5018954;28;20049;-77
2021/12/31 07:23:14;;;;;;;17.52;12.80;;;5.30;99.90;;;;;;5020705;28;20112;-77
2021/12/31 07:25:41;;;;;;;17.10;13.00;;;5.30;99.90;;;;;;5020415;28;20014;-78
2021/12/31 07:28:08;;;;;;;18.52;13.38;;;5.40;99.90;;;;;;5019020;28;20030;-77
2021/12/31 07:30:34;;;;;;;15.55;11.23;;;5.40;99.90;;;;;;5020225;28;20097;-77
2021/12/31 07:33:00;;;;;;;16.10;11.82;;;5.50;99.90;;;;;;5020372;28;20030;-78
2021/12/31 07:35:26;;;;;;;15.50;12.02;;;5.40;99.90;;;;;;5018601;28;20494;-77
2021/12/31 07:37:55;;;;;;;16.40;11.60;;;5.30;99.90;;;;;;5020221;28;20026;-78
2021/12/31 07:40:33;;;;;;;13.38;11.65;;;5.20;99.90;;;;;;5020320;28;20028;-77
2021/12/31 07:42:58;;;;;;;14.70;11.20;;;5.20;99.90;;;;;;5020016;28;20033;-78
2021/12/31 07:45:24;;;;;;;16.08;10.60;;;5.10;99.90;;;;;;5018782;28;20128;-77
2021/12/31 07:47:50;;;;;;;17.80;11.95;;;5.10;99.90;;;;;;5019952;28;20030;-78
2021/12/31 07:50:15;;;;;;;17.60;13.30;;;5.10;99.90;;;;;;5018566;28;20026;-78
2021/12/31 07:52:41;;;;;;;18.60;13.65;;;5.30;99.90;;;;;;5018633;28;20030;-78
2021/12/31 07:55:08;;;;;;;25.55;15.27;;;5.50;99.90;;;;;;5018935;28;20022;-77
2021/12/31 07:57:33;;;;;;;22.20;15.68;;;5.90;99.90;;;;;;5019568;28;20061;-78
2021/12/31 07:59:59;;;;;;;24.65;16.95;;;6.20;99.90;;;;;;5020010;28;20399;-77
2021/12/31 08:02:25;;;;;;;297.13;109.18;;;6.30;99.90;;;;;;5019452;28;20065;-76
2021/12/31 08:04:50;;;;;;;261.52;98.70;;;6.30;99.90;;;;;;5018754;28;20433;-76
2021/12/31 08:07:16;;;;;;;346.75;126.07;;;6.20;99.90;;;;;;5019408;28;20026;-76
2021/12/31 08:09:42;;;;;;;66.32;31.50;;;6.20;99.90;;;;;;5018534;28;20387;-76
2021/12/31 08:12:08;;;;;;;75.93;39.72;;;6.10;99.90;;;;;;5019376;28;20037;-76
2021/12/31 08:14:33;;;;;;;53.40;27.45;;;6.00;99.90;;;;;;5019600;28;20101;-76
2021/12/31 08:16:59;;;;;;;28.48;20.40;;;5.90;99.90;;;;;;5019619;28;20061;-76
2021/12/31 08:19:25;;;;;;;35.97;19.25;;;5.90;99.90;;;;;;5019108;28;20032;-76
2021/12/31 08:21:50;;;;;;;30.67;17.67;;;5.90;99.90;;;;;;5018099;28;20034;-76
2021/12/31 08:24:16;;;;;;;21.23;16.27;;;6.00;99.90;;;;;;5018164;28;20025;-76
2021/12/31 08:26:42;;;;;;;27.08;19.45;;;6.10;99.90;;;;;;5018793;28;20030;-76
2021/12/31 08:29:08;;;;;;;26.58;17.45;;;6.30;99.90;;;;;;5018460;28;20041;-76
2021/12/31 08:31:35;;;;;;;29.42;19.85;;;6.30;99.90;;;;;;5050097;28;20624;-76
2021/12/31 08:34:01;;;;;;;30.25;21.77;;;6.50;99.90;;;;;;5017610;28;20028;-76
2021/12/31 08:36:26;;;;;;;24.23;20.10;;;6.60;99.90;;;;;;5018776;28;20390;-77
2021/12/31 08:38:52;;;;;;;24.65;19.70;;;6.70;99.90;;;;;;5017200;28;20018;-76
2021/12/31 08:41:18;;;;;;;25.77;20.58;;;6.90;99.90;;;;;;5018615;28;20038;-77
2021/12/31 08:43:43;;;;;;;24.55;17.98;;;7.00;99.90;;;;;;5018305;28;20393;-77
2021/12/31 08:46:09;;;;;;;26.15;19.95;;;7.10;99.90;;;;;;5018359;28;20030;-77
2021/12/31 08:48:35;;;;;;;24.88;20.25;;;7.10;99.90;;;;;;5018419;28;20091;-77
2021/12/31 08:51:01;;;;;;;26.50;20.13;;;7.10;99.90;;;;;;5017867;28;20022;-77
2021/12/31 08:53:26;;;;;;;31.38;22.15;;;7.10;99.90;;;;;;5018254;28;20025;-77
2021/12/31 08:55:52;;;;;;;29.95;23.05;;;7.10;99.90;;;;;;5049879;28;20026;-77
2021/12/31 08:58:18;;;;;;;35.60;26.95;;;7.10;99.90;;;;;;5016649;28;20433;-77
2021/12/31 09:00:44;;;;;;;33.63;24.90;;;7.10;99.90;;;;;;5017805;28;20068;-77
2021/12/31 09:03:09;;;;;;;34.88;25.23;;;7.20;99.90;;;;;;5018392;28;20494;-77
2021/12/31 09:05:35;;;;;;;30.88;24.15;;;7.20;99.90;;;;;;5017523;28;20029;-77
2021/12/31 09:08:01;;;;;;;32.15;25.15;;;7.20;99.90;;;;;;5017967;28;20112;-77
2021/12/31 09:10:26;;;;;;;33.80;24.40;;;7.20;99.90;;;;;;5018381;28;20026;-77
2021/12/31 09:12:52;;;;;;;38.92;26.17;;;7.20;99.90;;;;;;5016487;28;20071;-77
2021/12/31 09:15:18;;;;;;;28.17;23.73;;;7.30;99.90;;;;;;5018221;28;20030;-77
2021/12/31 09:17:44;;;;;;;32.70;24.77;;;7.40;99.90;;;;;;5018500;28;20025;-77
2021/12/31 09:20:10;;;;;;;36.95;27.80;;;7.40;99.90;;;;;;5017780;28;20398;-77
2021/12/31 09:22:36;;;;;;;30.50;24.13;;;7.40;99.90;;;;;;5050011;28;20018;-77
2021/12/31 09:25:03;;;;;;;30.73;24.27;;;7.50;99.90;;;;;;5018044;28;20034;-77
2021/12/31 09:27:29;;;;;;;29.05;23.08;;;7.60;99.90;;;;;;5016526;28;20052;-77
2021/12/31 09:29:55;;;;;;;29.05;24.30;;;7.70;99.90;;;;;;5018045;28;20426;-77
2021/12/31 09:32:21;;;;;;;32.25;25.48;;;7.70;99.90;;;;;;5016589;28;20443;-77
2021/12/31 09:34:48;;;;;;;31.92;25.73;;;7.80;99.90;;;;;;5017459;28;20024;-77
2021/12/31 09:37:15;;;;;;;33.05;24.60;;;7.90;99.90;;;;;;5016621;28;20025;-77
2021/12/31 09:39:41;;;;;;;30.67;24.95;;;8.00;99.90;;;;;;5017735;28;20025;-77
2021/12/31 09:42:08;;;;;;;28.63;22.42;;;8.00;99.90;;;;;;5016398;28;20490;-77
2021/12/31 09:44:35;;;;;;;28.38;21.83;;;8.20;99.90;;;;;;5017389;28;20098;-77
2021/12/31 09:47:07;;;;;;;25.45;20.35;;;8.40;99.90;;;;;;5016144;28;20026;-78
2021/12/31 09:49:34;;;;;;;26.85;21.35;;;8.60;99.90;;;;;;5014973;28;20030;-78
2021/12/31 09:52:01;;;;;;;24.17;19.15;;;8.80;99.90;;;;;;5016938;28;20029;-77
2021/12/31 09:54:27;;;;;;;22.85;20.35;;;8.80;99.90;;;;;;5017330;28;20502;-77
2021/12/31 09:56:53;;;;;;;24.67;19.48;;;8.90;99.90;;;;;;5015515;28;20367;-76
2021/12/31 09:59:19;;;;;;;23.17;19.58;;;8.90;99.90;;;;;;5017415;28;20030;-77
2021/12/31 10:01:50;;;;;;;20.25;17.42;;;9.00;99.90;;;;;;5017603;28;20014;-77
2021/12/31 10:04:16;;;;;;;25.73;19.98;;;9.00;99.90;;;;;;5016073;28;20030;-76
2021/12/31 10:07:10;;;;;;;22.58;18.73;;;9.10;99.90;;;;;;5017551;28;20093;-77
2021/12/31 10:09:40;;;;;;;22.55;17.48;;;9.20;99.90;;;;;;5017184;28;20056;-76
2021/12/31 10:12:06;;;;;;;23.73;18.48;;;9.30;99.90;;;;;;5016012;28;20071;-77
2021/12/31 10:14:38;;;;;;;22.67;17.77;;;9.40;99.90;;;;;;5006891;28;20088;-76
2021/12/31 10:17:08;;;;;;;21.77;17.52;;;9.60;99.90;;;;;;5019260;28;20025;-76
2021/12/31 10:19:34;;;;;;;22.48;18.27;;;9.70;99.90;;;;;;5027710;28;20085;-76
2021/12/31 10:22:01;;;;;;;17.52;15.73;;;9.90;99.90;;;;;;5016094;28;20022;-76
2021/12/31 10:24:38;;;;;;;18.80;14.90;;;10.00;99.90;;;;;;5017029;28;20047;-76
2021/12/31 10:27:09;;;;;;;17.58;15.57;;;10.20;99.90;;;;;;5016891;28;20037;-76
2021/12/31 10:29:51;;;;;;;15.18;13.63;;;10.40;99.90;;;;;;5016885;28;20034;-77
2021/12/31 10:32:17;;;;;;;14.85;11.95;;;10.50;99.90;;;;;;5016917;28;20509;-77
2021/12/31 10:34:43;;;;;;;13.48;11.93;;;10.50;99.90;;;;;;5016568;28;20105;-77
2021/12/31 10:37:22;;;;;;;14.60;11.82;;;10.50;99.90;;;;;;5014898;28;20034;-76
2021/12/31 10:39:59;;;;;;;15.60;13.25;;;10.60;99.90;;;;;;5015840;28;20113;-75
2021/12/31 10:42:30;;;;;;;12.60;11.32;;;10.60;99.90;;;;;;5015622;28;20018;-75
2021/12/31 10:44:57;;;;;;;13.35;11.95;;;10.60;99.90;;;;;;5015923;28;20022;-75
2021/12/31 10:47:42;;;;;;;12.98;10.88;;;10.60;99.90;;;;;;5016915;28;20022;-75
2021/12/31 10:50:16;;;;;;;14.20;10.98;;;10.70;99.90;;;;;;5016539;28;20026;-75
2021/12/31 10:53:10;;;;;;;12.02;10.82;;;10.70;99.90;;;;;;5016813;28;20026;-76
2021/12/31 10:55:40;;;;;;;11.52;10.38;;;10.80;99.90;;;;;;5016894;28;20057;-75
2021/12/31 10:58:10;;;;;;;14.20;11.95;;;10.80;99.90;;;;;;5015461;28;20049;-75
2021/12/31 11:00:42;;;;;;;14.80;10.80;;;10.90;99.90;;;;;;5017014;28;20445;-75
2021/12/31 11:03:09;;;;;;;13.57;10.43;;;10.90;99.90;;;;;;5017317;28;20072;-76
2021/12/31 11:05:36;;;;;;;15.27;10.73;;;11.00;99.90;;;;;;5015417;28;20057;-76
2021/12/31 11:08:05;;;;;;;9.73;8.73;;;11.10;99.90;;;;;;5015539;28;20058;-76
2021/12/31 11:10:35;;;;;;;12.07;9.77;;;11.20;99.90;;;;;;5016863;28;20030;-75
2021/12/31 11:13:06;;;;;;;11.35;8.93;;;11.30;99.90;;;;;;5017214;28;20038;-75
2021/12/31 11:15:32;;;;;;;10.60;8.15;;;11.40;99.90;;;;;;5016839;28;20022;-76
2021/12/31 11:17:58;;;;;;;14.88;8.38;;;11.60;99.90;;;;;;5016972;28;20030;-76
2021/12/31 11:20:25;;;;;;;9.23;8.30;;;11.60;99.90;;;;;;5013994;28;20029;-76
2021/12/31 11:22:51;;;;;;;11.23;8.00;;;11.70;99.90;;;;;;5016420;28;20045;-77
2021/12/31 11:25:17;;;;;;;10.35;9.07;;;11.80;99.90;;;;;;5016572;28;20026;-78
2021/12/31 11:27:47;;;;;;;10.00;8.80;;;11.90;99.90;;;;;;5015345;28;20033;-78
2021/12/31 11:30:37;;;;;;;10.47;8.63;;;11.90;99.90;;;;;;5017455;28;20014;-77
2021/12/31 11:33:17;;;;;;;12.73;8.20;;;12.10;99.90;;;;;;5018890;28;20029;-78
2021/12/31 11:36:06;;;;;;;8.73;7.38;;;12.20;99.90;;;;;;5018445;28;20061;-78
2021/12/31 11:38:32;;;;;;;10.75;7.47;;;12.30;99.90;;;;;;5051701;28;20108;-77
2021/12/31 11:41:23;;;;;;;7.90;6.38;;;12.40;99.90;;;;;;5020020;28;20057;-77
2021/12/31 11:44:09;;;;;;;6.82;6.10;;;12.50;99.90;;;;;;5020273;28;20022;-77
2021/12/31 11:46:41;;;;;;;7.05;6.35;;;12.60;99.90;;;;;;5019983;28;20028;-77
2021/12/31 11:49:26;;;;;;;8.48;5.72;;;12.70;99.90;;;;;;5018819;28;20034;-77
2021/12/31 11:52:06;;;;;;;6.45;5.78;;;12.90;99.90;;;;;;5017375;28;20026;-77
2021/12/31 11:54:37;;;;;;;5.07;4.57;;;13.00;99.90;;;;;;5017770;28;20056;-77
2021/12/31 11:57:09;;;;;;;6.53;5.22;;;13.00;99.90;;;;;;5017717;28;20041;-77
2021/12/31 11:59:48;;;;;;;6.78;5.60;;;13.10;99.90;;;;;;5018938;28;20053;-77
2021/12/31 12:02:17;;;;;;;11.10;5.20;;;13.10;99.90;;;;;;5019215;28;20045;-77
2021/12/31 12:05:08;;;;;;;5.22;4.72;;;13.20;99.90;;;;;;5050609;28;20382;-77
2021/12/31 12:07:38;;;;;;;6.97;4.13;;;13.40;99.90;;;;;;5050857;28;20316;-77
2021/12/31 12:10:03;;;;;;;7.32;5.00;;;13.60;99.90;;;;;;5019112;28;20394;-77
2021/12/31 12:12:34;;;;;;;4.30;3.75;;;13.60;99.90;;;;;;5018829;28;20030;-77
2021/12/31 12:15:03;;;;;;;3.63;2.95;;;13.70;99.90;;;;;;5050558;28;20026;-77
2021/12/31 12:17:29;;;;;;;5.60;3.30;;;13.90;99.90;;;;;;5050492;28;20041;-77
2021/12/31 12:19:57;;;;;;;6.18;2.78;;;14.20;99.90;;;;;;5014337;28;20019;-77
2021/12/31 12:22:33;;;;;;;3.90;2.95;;;14.20;99.90;;;;;;5015623;28;20046;-77
2021/12/31 12:25:02;;;;;;;5.63;2.80;;;14.30;99.90;;;;;;5019302;28;20074;-77
2021/12/31 12:27:28;;;;;;;3.45;2.28;;;14.40;99.90;;;;;;5019332;28;20021;-77
2021/12/31 12:29:55;;;;;;;3.00;2.60;;;14.50;99.90;;;;;;5019452;28;20026;-77
2021/12/31 12:32:37;;;;;;;4.35;2.67;;;14.50;99.90;;;;;;5018030;28;20108;-77
2021/12/31 12:35:22;;;;;;;3.40;2.75;;;14.40;99.90;;;;;;5017488;28;20475;-77
2021/12/31 12:37:58;;;;;;;2.25;2.00;;;14.30;99.90;;;;;;5018157;28;20025;-77
2021/12/31 12:40:53;;;;;;;3.08;2.20;;;14.20;99.90;;;;;;5018956;28;20030;-77
2021/12/31 12:43:23;;;;;;;2.90;2.50;;;14.20;99.90;;;;;;5017450;28;20026;-77
2021/12/31 12:45:53;;;;;;;2.80;2.50;;;14.20;99.90;;;;;;5019102;28;20022;-77
2021/12/31 12:48:36;;;;;;;3.50;2.30;;;14.20;99.90;;;;;;5018854;28;20104;-77
2021/12/31 12:51:07;;;;;;;3.00;2.28;;;14.20;99.90;;;;;;5017644;28;20038;-77